Aviation Digital Data Service (ADDS)

Output produced by METARs form (1200 UTC 25 June 2019)
found at http://www.aviationweather.gov/metar/data/
 
METAR text: WAPP 250930Z 17006KT 140V200 9999 SCT016 26/24 Q1012 NOSIG
Conditions at: WAPP (AMBON/PATTIMURA , ID) observed 0930 UTC 25 June 2019
Temperature: 26.0°C (79°F)
Dewpoint: 24.0°C (75°F) [RH = 89%]
Pressure (altimeter): 29.88 inches Hg (1012.0 mb)
Winds: from the S (170 degrees) at 7 MPH (6 knots; 3.1 m/s)
Visibility: 6 or more miles (10+ km)
Ceiling: at least 12,000 feet AGL
Clouds: scattered clouds at 1600 feet AGL
Weather: no significant weather observed at this time

METAR text: WAPP 250700Z 16007KT 110V210 9999 SCT016 27/24 Q1011 NOSIG
Conditions at: WAPP (AMBON/PATTIMURA , ID) observed 0700 UTC 25 June 2019
Temperature: 27.0°C (81°F)
Dewpoint: 24.0°C (75°F) [RH = 84%]
Pressure (altimeter): 29.85 inches Hg (1011.0 mb)
Winds: from the SSE (160 degrees) at 8 MPH (7 knots; 3.6 m/s)
Visibility: 6 or more miles (10+ km)
Ceiling: at least 12,000 feet AGL
Clouds: scattered clouds at 1600 feet AGL
Weather: no significant weather observed at this time

METAR text: WAPP 250600Z 16007KT 120V200 9999 BKN016 27/24 Q1011 NOSIG
Conditions at: WAPP (AMBON/PATTIMURA , ID) observed 0600 UTC 25 June 2019
Temperature: 27.0°C (81°F)
Dewpoint: 24.0°C (75°F) [RH = 84%]
Pressure (altimeter): 29.85 inches Hg (1011.0 mb)
Winds: from the SSE (160 degrees) at 8 MPH (7 knots; 3.6 m/s)
Visibility: 6 or more miles (10+ km)
Ceiling: 1600 feet AGL
Clouds: broken clouds at 1600 feet AGL
Weather: no significant weather observed at this time

METAR text: WAPP 250400Z 15005KT 090V200 9999 BKN016 27/24 Q1012 RERA NOSIG
Conditions at: WAPP (AMBON/PATTIMURA , ID) observed 0400 UTC 25 June 2019
Temperature: 27.0°C (81°F)
Dewpoint: 24.0°C (75°F) [RH = 84%]
Pressure (altimeter): 29.88 inches Hg (1012.0 mb)
Winds: from the SSE (150 degrees) at 6 MPH (5 knots; 2.6 m/s)
Visibility: 6 or more miles (10+ km)
Ceiling: 1600 feet AGL
Clouds: broken clouds at 1600 feet AGL
Weather: no significant weather observed at this time

METAR text: WAPP 250300Z 16005KT 110V200 9999 BKN016 26/24 Q1013 NOSIG
Conditions at: WAPP (AMBON/PATTIMURA , ID) observed 0300 UTC 25 June 2019
Temperature: 26.0°C (79°F)
Dewpoint: 24.0°C (75°F) [RH = 89%]
Pressure (altimeter): 29.91 inches Hg (1013.0 mb)
Winds: from the SSE (160 degrees) at 6 MPH (5 knots; 2.6 m/s)
Visibility: 6 or more miles (10+ km)
Ceiling: 1600 feet AGL
Clouds: broken clouds at 1600 feet AGL
Weather: no significant weather observed at this time

METAR text: WAPP 250200Z 15005KT 110V190 9999 BKN016 27/24 Q1013 NOSIG
Conditions at: WAPP (AMBON/PATTIMURA , ID) observed 0200 UTC 25 June 2019
Temperature: 27.0°C (81°F)
Dewpoint: 24.0°C (75°F) [RH = 84%]
Pressure (altimeter): 29.91 inches Hg (1013.0 mb)
Winds: from the SSE (150 degrees) at 6 MPH (5 knots; 2.6 m/s)
Visibility: 6 or more miles (10+ km)
Ceiling: 1600 feet AGL
Clouds: broken clouds at 1600 feet AGL
Weather: no significant weather observed at this time

METAR text: WAPP 250130Z 14005KT 100V200 9999 BKN016 26/24 Q1014 RERA NOSIG
Conditions at: WAPP (AMBON/PATTIMURA , ID) observed 0130 UTC 25 June 2019
Temperature: 26.0°C (79°F)
Dewpoint: 24.0°C (75°F) [RH = 89%]
Pressure (altimeter): 29.94 inches Hg (1014.0 mb)
Winds: from the SE (140 degrees) at 6 MPH (5 knots; 2.6 m/s)
Visibility: 6 or more miles (10+ km)
Ceiling: 1600 feet AGL
Clouds: broken clouds at 1600 feet AGL
Weather: no significant weather observed at this time

METAR text: WAPP 250100Z 15004KT 080V210 9000 -RA BKN016 26/25 Q1014 NOSIG
Conditions at: WAPP (AMBON/PATTIMURA , ID) observed 0100 UTC 25 June 2019
Temperature: 26.0°C (79°F)
Dewpoint: 25.0°C (77°F) [RH = 94%]
Pressure (altimeter): 29.94 inches Hg (1014.0 mb)
Winds: from the SSE (150 degrees) at 5 MPH (4 knots; 2.1 m/s)
Visibility: 6 miles ( 9 km)
Ceiling: 1600 feet AGL
Clouds: broken clouds at 1600 feet AGL
Weather: -RA  (light rain)

METAR text: WAPP 250030Z 15004KT 110V190 9000 -RA BKN016 26/24 Q1014 NOSIG
Conditions at: WAPP (AMBON/PATTIMURA , ID) observed 0030 UTC 25 June 2019
Temperature: 26.0°C (79°F)
Dewpoint: 24.0°C (75°F) [RH = 89%]
Pressure (altimeter): 29.94 inches Hg (1014.0 mb)
Winds: from the SSE (150 degrees) at 5 MPH (4 knots; 2.1 m/s)
Visibility: 6 miles ( 9 km)
Ceiling: 1600 feet AGL
Clouds: broken clouds at 1600 feet AGL
Weather: -RA  (light rain)

METAR text: WAPP 250000Z 17003KT 110V220 8000 -RA BKN016 25/24 Q1014 NOSIG
Conditions at: WAPP (AMBON/PATTIMURA , ID) observed 0000 UTC 25 June 2019
Temperature: 25.0°C (77°F)
Dewpoint: 24.0°C (75°F) [RH = 94%]
Pressure (altimeter): 29.94 inches Hg (1014.0 mb)
Winds: from the S (170 degrees) at 3 MPH (3 knots; 1.5 m/s)
Visibility: 5 miles ( 8 km)
Ceiling: 1600 feet AGL
Clouds: broken clouds at 1600 feet AGL
Weather: -RA  (light rain)

METAR text: WAPP 242300Z VRB01KT 9000 BKN017 24/23 Q1013 RERA NOSIG
Conditions at: WAPP (AMBON/PATTIMURA , ID) observed 2300 UTC 24 June 2019
Temperature: 24.0°C (75°F)
Dewpoint: 23.0°C (73°F) [RH = 94%]
Pressure (altimeter): 29.91 inches Hg (1013.0 mb)
Winds: variable direction winds at 1 MPH (1 knots; 0.5 m/s)
Visibility: 6 miles ( 9 km)
Ceiling: 1700 feet AGL
Clouds: broken clouds at 1700 feet AGL
Weather: no significant weather observed at this time

METAR text: WAPP 242230Z VRB02KT 9000 -RA BKN017 25/23 Q1013 NOSIG
Conditions at: WAPP (AMBON/PATTIMURA , ID) observed 2230 UTC 24 June 2019
Temperature: 25.0°C (77°F)
Dewpoint: 23.0°C (73°F) [RH = 89%]
Pressure (altimeter): 29.91 inches Hg (1013.0 mb)
Winds: variable direction winds at 2 MPH (2 knots; 1.0 m/s)
Visibility: 6 miles ( 9 km)
Ceiling: 1700 feet AGL
Clouds: broken clouds at 1700 feet AGL
Weather: -RA  (light rain)

METAR text: WAPP 242130Z 16005KT 130V200 8000 -RA BKN017 25/24 Q1013 NOSIG
Conditions at: WAPP (AMBON/PATTIMURA , ID) observed 2130 UTC 24 June 2019
Temperature: 25.0°C (77°F)
Dewpoint: 24.0°C (75°F) [RH = 94%]
Pressure (altimeter): 29.91 inches Hg (1013.0 mb)
Winds: from the SSE (160 degrees) at 6 MPH (5 knots; 2.6 m/s)
Visibility: 5 miles ( 8 km)
Ceiling: 1700 feet AGL
Clouds: broken clouds at 1700 feet AGL
Weather: -RA  (light rain)

METAR text: WAPP 242100Z 17003KT 090V220 8000 -RA BKN017 24/24 Q1012 NOSIG
Conditions at: WAPP (AMBON/PATTIMURA , ID) observed 2100 UTC 24 June 2019
Temperature: 24.0°C (75°F)
Dewpoint: 24.0°C (75°F) [RH = 100%]
Pressure (altimeter): 29.88 inches Hg (1012.0 mb)
Winds: from the S (170 degrees) at 3 MPH (3 knots; 1.5 m/s)
Visibility: 5 miles ( 8 km)
Ceiling: 1700 feet AGL
Clouds: broken clouds at 1700 feet AGL
Weather: -RA  (light rain)

METAR text: WAPP 241600Z 13006KT 060V180 8000 -RA BKN017 26/24 Q1013 NOSIG
Conditions at: WAPP (AMBON/PATTIMURA , ID) observed 1600 UTC 24 June 2019
Temperature: 26.0°C (79°F)
Dewpoint: 24.0°C (75°F) [RH = 89%]
Pressure (altimeter): 29.91 inches Hg (1013.0 mb)
Winds: from the SE (130 degrees) at 7 MPH (6 knots; 3.1 m/s)
Visibility: 5 miles ( 8 km)
Ceiling: 1700 feet AGL
Clouds: broken clouds at 1700 feet AGL
Weather: -RA  (light rain)

METAR text: WAPP 241500Z 14007KT 100V190 8000 -RA BKN017 26/24 Q1013 NOSIG
Conditions at: WAPP (AMBON/PATTIMURA , ID) observed 1500 UTC 24 June 2019
Temperature: 26.0°C (79°F)
Dewpoint: 24.0°C (75°F) [RH = 89%]
Pressure (altimeter): 29.91 inches Hg (1013.0 mb)
Winds: from the SE (140 degrees) at 8 MPH (7 knots; 3.6 m/s)
Visibility: 5 miles ( 8 km)
Ceiling: 1700 feet AGL
Clouds: broken clouds at 1700 feet AGL
Weather: -RA  (light rain)

METAR text: WAPP 241400Z 13005KT 060V180 8000 -RA BKN017 25/24 Q1013 NOSIG
Conditions at: WAPP (AMBON/PATTIMURA , ID) observed 1400 UTC 24 June 2019
Temperature: 25.0°C (77°F)
Dewpoint: 24.0°C (75°F) [RH = 94%]
Pressure (altimeter): 29.91 inches Hg (1013.0 mb)
Winds: from the SE (130 degrees) at 6 MPH (5 knots; 2.6 m/s)
Visibility: 5 miles ( 8 km)
Ceiling: 1700 feet AGL
Clouds: broken clouds at 1700 feet AGL
Weather: -RA  (light rain)

METAR text: WAPP 241300Z 15007KT 100V200 8000 -RA BKN015 25/23 Q1013 NOSIG
Conditions at: WAPP (AMBON/PATTIMURA , ID) observed 1300 UTC 24 June 2019
Temperature: 25.0°C (77°F)
Dewpoint: 23.0°C (73°F) [RH = 89%]
Pressure (altimeter): 29.91 inches Hg (1013.0 mb)
Winds: from the SSE (150 degrees) at 8 MPH (7 knots; 3.6 m/s)
Visibility: 5 miles ( 8 km)
Ceiling: 1500 feet AGL
Clouds: broken clouds at 1500 feet AGL
Weather: -RA  (light rain)

METAR text: WAPP 241200Z 17004KT 140V200 8000 -RA BKN015 26/24 Q1013 NOSIG
Conditions at: WAPP (AMBON/PATTIMURA , ID) observed 1200 UTC 24 June 2019
Temperature: 26.0°C (79°F)
Dewpoint: 24.0°C (75°F) [RH = 89%]
Pressure (altimeter): 29.91 inches Hg (1013.0 mb)
Winds: from the S (170 degrees) at 5 MPH (4 knots; 2.1 m/s)
Visibility: 5 miles ( 8 km)
Ceiling: 1500 feet AGL
Clouds: broken clouds at 1500 feet AGL
Weather: -RA  (light rain)

METAR text: WAPP 241100Z 15005KT 090V200 8000 -RA BKN015 25/24 Q1013 NOSIG
Conditions at: WAPP (AMBON/PATTIMURA , ID) observed 1100 UTC 24 June 2019
Temperature: 25.0°C (77°F)
Dewpoint: 24.0°C (75°F) [RH = 94%]
Pressure (altimeter): 29.91 inches Hg (1013.0 mb)
Winds: from the SSE (150 degrees) at 6 MPH (5 knots; 2.6 m/s)
Visibility: 5 miles ( 8 km)
Ceiling: 1500 feet AGL
Clouds: broken clouds at 1500 feet AGL
Weather: -RA  (light rain)

METAR text: WAPP 241030Z 14003KT 070V190 7000 -RA BKN015 25/24 Q1012 NOSIG
Conditions at: WAPP (AMBON/PATTIMURA , ID) observed 1030 UTC 24 June 2019
Temperature: 25.0°C (77°F)
Dewpoint: 24.0°C (75°F) [RH = 94%]
Pressure (altimeter): 29.88 inches Hg (1012.0 mb)
Winds: from the SE (140 degrees) at 3 MPH (3 knots; 1.5 m/s)
Visibility: 4 miles ( 7 km)
Ceiling: 1500 feet AGL
Clouds: broken clouds at 1500 feet AGL
Weather: -RA  (light rain)

METAR text: WAPP 240930Z 17004KT 120V210 6000 -RA BKN015 26/25 Q1012 NOSIG
Conditions at: WAPP (AMBON/PATTIMURA , ID) observed 0930 UTC 24 June 2019
Temperature: 26.0°C (79°F)
Dewpoint: 25.0°C (77°F) [RH = 94%]
Pressure (altimeter): 29.88 inches Hg (1012.0 mb)
Winds: from the S (170 degrees) at 5 MPH (4 knots; 2.1 m/s)
Visibility: 4 miles ( 6 km)
Ceiling: 1500 feet AGL
Clouds: broken clouds at 1500 feet AGL
Weather: -RA  (light rain)

METAR text: WAPP 240900Z 17003KT 130V200 8000 -RA BKN015 26/24 Q1011 NOSIG
Conditions at: WAPP (AMBON/PATTIMURA , ID) observed 0900 UTC 24 June 2019
Temperature: 26.0°C (79°F)
Dewpoint: 24.0°C (75°F) [RH = 89%]
Pressure (altimeter): 29.85 inches Hg (1011.0 mb)
Winds: from the S (170 degrees) at 3 MPH (3 knots; 1.5 m/s)
Visibility: 5 miles ( 8 km)
Ceiling: 1500 feet AGL
Clouds: broken clouds at 1500 feet AGL
Weather: -RA  (light rain)

METAR text: WAPP 240830Z 14004KT 090V200 8000 -RA BKN015 25/24 Q1011 NOSIG
Conditions at: WAPP (AMBON/PATTIMURA , ID) observed 0830 UTC 24 June 2019
Temperature: 25.0°C (77°F)
Dewpoint: 24.0°C (75°F) [RH = 94%]
Pressure (altimeter): 29.85 inches Hg (1011.0 mb)
Winds: from the SE (140 degrees) at 5 MPH (4 knots; 2.1 m/s)
Visibility: 5 miles ( 8 km)
Ceiling: 1500 feet AGL
Clouds: broken clouds at 1500 feet AGL
Weather: -RA  (light rain)

METAR text: WAPP 240800Z 13004KT 070V180 8000 -RA BKN015 26/25 Q1011 NOSIG
Conditions at: WAPP (AMBON/PATTIMURA , ID) observed 0800 UTC 24 June 2019
Temperature: 26.0°C (79°F)
Dewpoint: 25.0°C (77°F) [RH = 94%]
Pressure (altimeter): 29.85 inches Hg (1011.0 mb)
Winds: from the SE (130 degrees) at 5 MPH (4 knots; 2.1 m/s)
Visibility: 5 miles ( 8 km)
Ceiling: 1500 feet AGL
Clouds: broken clouds at 1500 feet AGL
Weather: -RA  (light rain)

METAR text: WAPP 240730Z 19005KT 150V220 4000 -RA BKN015 26/24 Q1010 NOSIG
Conditions at: WAPP (AMBON/PATTIMURA , ID) observed 0730 UTC 24 June 2019
Temperature: 26.0°C (79°F)
Dewpoint: 24.0°C (75°F) [RH = 89%]
Pressure (altimeter): 29.82 inches Hg (1010.0 mb)
Winds: from the S (190 degrees) at 6 MPH (5 knots; 2.6 m/s)
Visibility: 2.49 miles (4.01 km)
Ceiling: 1500 feet AGL
Clouds: broken clouds at 1500 feet AGL
Weather: -RA  (light rain)

METAR text: WAPP 240700Z 18005KT 130V230 9000 -RA BKN015 26/24 Q1010 NOSIG
Conditions at: WAPP (AMBON/PATTIMURA , ID) observed 0700 UTC 24 June 2019
Temperature: 26.0°C (79°F)
Dewpoint: 24.0°C (75°F) [RH = 89%]
Pressure (altimeter): 29.82 inches Hg (1010.0 mb)
Winds: from the S (180 degrees) at 6 MPH (5 knots; 2.6 m/s)
Visibility: 6 miles ( 9 km)
Ceiling: 1500 feet AGL
Clouds: broken clouds at 1500 feet AGL
Weather: -RA  (light rain)

METAR text: WAPP 240630Z 17006KT 130V210 9000 -RA BKN015 26/24 Q1011 NOSIG
Conditions at: WAPP (AMBON/PATTIMURA , ID) observed 0630 UTC 24 June 2019
Temperature: 26.0°C (79°F)
Dewpoint: 24.0°C (75°F) [RH = 89%]
Pressure (altimeter): 29.85 inches Hg (1011.0 mb)
Winds: from the S (170 degrees) at 7 MPH (6 knots; 3.1 m/s)
Visibility: 6 miles ( 9 km)
Ceiling: 1500 feet AGL
Clouds: broken clouds at 1500 feet AGL
Weather: -RA  (light rain)

METAR text: WAPP 240530Z 15005KT 100V190 9000 -RA BKN015 26/24 Q1011 NOSIG
Conditions at: WAPP (AMBON/PATTIMURA , ID) observed 0530 UTC 24 June 2019
Temperature: 26.0°C (79°F)
Dewpoint: 24.0°C (75°F) [RH = 89%]
Pressure (altimeter): 29.85 inches Hg (1011.0 mb)
Winds: from the SSE (150 degrees) at 6 MPH (5 knots; 2.6 m/s)
Visibility: 6 miles ( 9 km)
Ceiling: 1500 feet AGL
Clouds: broken clouds at 1500 feet AGL
Weather: -RA  (light rain)

METAR text: WAPP 240500Z 15008KT 120V190 9000 -RA BKN015 25/23 Q1011 NOSIG
Conditions at: WAPP (AMBON/PATTIMURA , ID) observed 0500 UTC 24 June 2019
Temperature: 25.0°C (77°F)
Dewpoint: 23.0°C (73°F) [RH = 89%]
Pressure (altimeter): 29.85 inches Hg (1011.0 mb)
Winds: from the SSE (150 degrees) at 9 MPH (8 knots; 4.1 m/s)
Visibility: 6 miles ( 9 km)
Ceiling: 1500 feet AGL
Clouds: broken clouds at 1500 feet AGL
Weather: -RA  (light rain)

METAR text: WAPP 240430Z 15009KT 110V190 9000 -RA BKN016 26/23 Q1012 NOSIG
Conditions at: WAPP (AMBON/PATTIMURA , ID) observed 0430 UTC 24 June 2019
Temperature: 26.0°C (79°F)
Dewpoint: 23.0°C (73°F) [RH = 84%]
Pressure (altimeter): 29.88 inches Hg (1012.0 mb)
Winds: from the SSE (150 degrees) at 10 MPH (9 knots; 4.6 m/s)
Visibility: 6 miles ( 9 km)
Ceiling: 1600 feet AGL
Clouds: broken clouds at 1600 feet AGL
Weather: -RA  (light rain)

METAR text: WAPP 240400Z 14010KT 110V180 9000 -RA BKN016 26/24 Q1012 NOSIG
Conditions at: WAPP (AMBON/PATTIMURA , ID) observed 0400 UTC 24 June 2019
Temperature: 26.0°C (79°F)
Dewpoint: 24.0°C (75°F) [RH = 89%]
Pressure (altimeter): 29.88 inches Hg (1012.0 mb)
Winds: from the SE (140 degrees) at 12 MPH (10 knots; 5.1 m/s)
Visibility: 6 miles ( 9 km)
Ceiling: 1600 feet AGL
Clouds: broken clouds at 1600 feet AGL
Weather: -RA  (light rain)

METAR text: WAPP 240330Z 14008KT 100V190 8000 -RA BKN016 26/24 Q1012 NOSIG
Conditions at: WAPP (AMBON/PATTIMURA , ID) observed 0330 UTC 24 June 2019
Temperature: 26.0°C (79°F)
Dewpoint: 24.0°C (75°F) [RH = 89%]
Pressure (altimeter): 29.88 inches Hg (1012.0 mb)
Winds: from the SE (140 degrees) at 9 MPH (8 knots; 4.1 m/s)
Visibility: 5 miles ( 8 km)
Ceiling: 1600 feet AGL
Clouds: broken clouds at 1600 feet AGL
Weather: -RA  (light rain)

METAR text: WAPP 240300Z 16008KT 110V210 5000 -RA BKN016 25/24 Q1012 TEMPO 1000
Conditions at: WAPP (AMBON/PATTIMURA , ID) observed 0300 UTC 24 June 2019
Temperature: 25.0°C (77°F)
Dewpoint: 24.0°C (75°F) [RH = 94%]
Pressure (altimeter): 29.88 inches Hg (1012.0 mb)
Winds: from the SSE (160 degrees) at 9 MPH (8 knots; 4.1 m/s)
Visibility: 3 miles ( 5 km)
Ceiling: 1600 feet AGL
Clouds: broken clouds at 1600 feet AGL
Weather: -RA  (light rain)

METAR text: WAPP 240230Z 16006KT 120V200 2000 -RA BKN016 26/24 Q1013 TEMPO 1000
Conditions at: WAPP (AMBON/PATTIMURA , ID) observed 0230 UTC 24 June 2019
Temperature: 26.0°C (79°F)
Dewpoint: 24.0°C (75°F) [RH = 89%]
Pressure (altimeter): 29.91 inches Hg (1013.0 mb)
Winds: from the SSE (160 degrees) at 7 MPH (6 knots; 3.1 m/s)
Visibility: 1.24 miles (2.00 km)
Ceiling: 1600 feet AGL
Clouds: broken clouds at 1600 feet AGL
Weather: -RA  (light rain)

Forecast for: WAPP (AMBON/PATTIMURA , ID)
Text: TAF WAPP 251100Z 2512/2612 16007KT 9999 SCT018
Forecast period: 1200 UTC 25 June 2019 to 1200 UTC 26 June 2019
Forecast type: FROM: standard forecast or significant change
Winds: from the SSE (160 degrees) at 8 MPH (7 knots; 3.6 m/s)
Visibility: 6 or more miles 10+ km)
Ceiling: at least 12,000 feet AGL
Clouds: scattered clouds at 1800 feet AGL
Weather: no significant weather forecast for this period
Text: TEMPO 2517/2520 5000 RA
Forecast period: 1700 to 2000 UTC 25 June 2019
Forecast type: TEMPORARY: The following changes expected for less than half the time period
Visibility: 3 miles (5 km)
Ceiling: unknown
Clouds: missing
Weather: RA  (moderate rain)